createdAt,value
2023-04-24T00:01:37.940Z,11.75
2023-04-24T00:04:05.183Z,12.18
2023-04-24T00:06:34.753Z,10.02
2023-04-24T00:09:02.298Z,5.20
2023-04-24T00:11:29.505Z,11.43
2023-04-24T00:13:57.579Z,5.68
2023-04-24T00:16:24.719Z,10.38
2023-04-24T00:18:53.738Z,7.65
2023-04-24T00:21:21.465Z,9.45
2023-04-24T00:23:48.897Z,14.05
2023-04-24T00:26:15.973Z,13.07
2023-04-24T00:28:42.959Z,7.72
2023-04-24T00:31:09.954Z,11.07
2023-04-24T00:33:37.273Z,8.48
2023-04-24T00:36:04.400Z,7.20
2023-04-24T00:38:31.362Z,10.15
2023-04-24T00:40:58.284Z,8.70
2023-04-24T00:43:25.716Z,13.85
2023-04-24T00:45:52.820Z,7.43
2023-04-24T00:48:21.371Z,15.07
2023-04-24T00:50:48.383Z,8.60
2023-04-24T00:53:15.735Z,10.95
2023-04-24T00:55:42.785Z,6.05
2023-04-24T00:58:10.108Z,11.75
2023-04-24T01:00:37.163Z,11.23
2023-04-24T01:03:06.188Z,11.80
2023-04-24T01:05:35.032Z,7.25
2023-04-24T01:08:03.507Z,9.80
2023-04-24T01:10:32.813Z,9.18
2023-04-24T01:13:00.655Z,8.25
2023-04-24T01:15:27.782Z,7.88
2023-04-24T01:17:54.824Z,8.68
2023-04-24T01:20:22.132Z,8.15
2023-04-24T01:22:49.318Z,9.63
2023-04-24T01:25:16.515Z,15.20
2023-04-24T01:27:43.625Z,7.25
2023-04-24T01:30:13.313Z,7.28
2023-04-24T01:32:41.353Z,10.15
2023-04-24T01:35:09.301Z,5.32
2023-04-24T01:37:38.266Z,9.13
2023-04-24T01:40:07.797Z,8.43
2023-04-24T01:42:36.058Z,5.22
2023-04-24T01:45:05.117Z,8.27
2023-04-24T01:47:33.091Z,7.80
2023-04-24T01:50:00.246Z,13.38
2023-04-24T01:52:28.170Z,7.00
2023-04-24T01:54:56.780Z,7.35
2023-04-24T01:57:24.387Z,8.40
2023-04-24T01:59:52.117Z,6.13
2023-04-24T02:02:19.614Z,8.52
2023-04-24T02:04:46.664Z,7.32
2023-04-24T02:07:13.577Z,7.47
2023-04-24T02:09:40.643Z,8.32
2023-04-24T02:12:07.721Z,7.78
2023-04-24T02:14:34.824Z,9.68
2023-04-24T02:17:01.772Z,6.95
2023-04-24T02:19:29.413Z,7.78
2023-04-24T02:21:56.336Z,5.88
2023-04-24T02:24:23.335Z,7.95
2023-04-24T02:26:50.337Z,4.07
2023-04-24T02:29:17.279Z,8.82
2023-04-24T02:31:44.389Z,8.15
2023-04-24T02:34:12.265Z,4.38
2023-04-24T02:36:39.590Z,7.88
2023-04-24T02:39:06.645Z,8.15
2023-04-24T02:41:33.799Z,6.78
2023-04-24T02:44:00.864Z,10.98
2023-04-24T02:46:27.902Z,6.57
2023-04-24T02:48:54.964Z,8.32
2023-04-24T02:51:22.067Z,7.63
2023-04-24T02:53:49.235Z,4.13
2023-04-24T02:56:16.256Z,10.73
2023-04-24T02:58:43.491Z,6.90
2023-04-24T03:01:11.215Z,8.13
2023-04-24T03:03:40.096Z,7.72
2023-04-24T03:06:09.012Z,7.82
2023-04-24T03:08:36.565Z,7.07
2023-04-24T03:11:04.280Z,5.65
2023-04-24T03:13:32.329Z,7.00
2023-04-24T03:15:59.311Z,5.03
2023-04-24T03:18:28.380Z,5.45
2023-04-24T03:20:55.623Z,4.82
2023-04-24T03:23:22.913Z,4.57
2023-04-24T03:25:49.889Z,6.75
2023-04-24T03:28:20.569Z,5.78
2023-04-24T03:30:58.751Z,5.47
2023-04-24T03:33:31.994Z,5.30
2023-04-24T03:36:02.383Z,8.63
2023-04-24T03:38:37.172Z,6.40
2023-04-24T03:41:19.997Z,6.88
2023-04-24T03:43:50.744Z,5.07
2023-04-24T03:46:17.918Z,6.15
2023-04-24T03:48:51.738Z,4.68
2023-04-24T03:51:21.655Z,5.07
2023-04-24T03:53:51.336Z,5.55
2023-04-24T03:56:21.602Z,4.85
2023-04-24T03:58:48.692Z,5.43
2023-04-24T04:01:17.163Z,4.22
2023-04-24T04:03:52.468Z,5.25
2023-04-24T04:06:23.058Z,3.67
2023-04-24T04:08:52.419Z,7.07
2023-04-24T04:11:19.380Z,7.95
2023-04-24T04:13:48.896Z,4.53
2023-04-24T04:16:18.727Z,3.30
2023-04-24T04:18:47.718Z,4.07
2023-04-24T04:21:14.957Z,3.30
2023-04-24T04:23:42.671Z,3.85
2023-04-24T04:26:22.174Z,4.28
2023-04-24T04:29:02.204Z,3.53
2023-04-24T04:31:31.230Z,7.00
2023-04-24T04:34:02.601Z,3.05
2023-04-24T04:36:32.281Z,3.10
2023-04-24T04:39:08.596Z,3.13
2023-04-24T04:41:55.579Z,4.20
2023-04-24T04:44:30.253Z,3.03
2023-04-24T04:46:58.505Z,3.30
2023-04-24T04:49:29.509Z,3.90
2023-04-24T04:51:57.536Z,4.05
2023-04-24T04:54:26.666Z,3.78
2023-04-24T04:56:54.415Z,6.30
2023-04-24T04:59:21.992Z,5.47
2023-04-24T05:01:52.401Z,5.22
2023-04-24T05:04:19.737Z,4.65
2023-04-24T05:06:48.432Z,7.45
2023-04-24T05:09:16.119Z,7.93
2023-04-24T05:11:53.341Z,6.93
2023-04-24T05:14:21.824Z,11.05
2023-04-24T05:16:50.253Z,7.63
2023-04-24T05:19:20.110Z,8.80
2023-04-24T05:21:47.322Z,7.78
2023-04-24T05:24:14.301Z,8.00
2023-04-24T05:27:00.219Z,9.18
2023-04-24T05:29:34.356Z,8.90
2023-04-24T05:32:01.780Z,8.20
2023-04-24T05:34:31.065Z,6.45
2023-04-24T05:36:58.672Z,6.68
2023-04-24T05:39:26.454Z,9.80
2023-04-24T05:41:54.669Z,6.97
2023-04-24T05:44:21.830Z,9.85
2023-04-24T05:46:49.174Z,11.20
2023-04-24T05:49:17.584Z,6.93
2023-04-24T05:51:46.073Z,8.32
2023-04-24T05:54:13.474Z,8.80
2023-04-24T05:56:43.190Z,11.50
2023-04-24T05:59:13.504Z,8.10
2023-04-24T06:01:41.728Z,9.43
2023-04-24T06:04:17.101Z,12.93
2023-04-24T06:06:44.275Z,7.88
2023-04-24T06:09:11.250Z,9.63
2023-04-24T06:11:38.243Z,8.20
2023-04-24T06:14:06.170Z,7.95
2023-04-24T06:16:40.024Z,10.48
2023-04-24T06:19:17.894Z,10.52
2023-04-24T06:21:44.963Z,7.55
2023-04-24T06:24:12.079Z,11.27
2023-04-24T06:26:39.041Z,6.20
2023-04-24T06:29:08.466Z,9.00
2023-04-24T06:31:38.123Z,9.18
2023-04-24T06:34:06.005Z,8.75
2023-04-24T06:36:35.551Z,7.95
2023-04-24T06:39:02.844Z,12.18
2023-04-24T06:41:30.597Z,9.32
2023-04-24T06:43:57.514Z,7.32
2023-04-24T06:46:27.168Z,11.52
2023-04-24T06:48:57.550Z,13.60
2023-04-24T06:51:25.358Z,12.57
2023-04-24T06:53:55.577Z,10.63
2023-04-24T06:56:23.305Z,10.18
2023-04-24T06:58:50.510Z,14.95
2023-04-24T07:01:17.504Z,12.07
2023-04-24T07:03:44.587Z,8.82
2023-04-24T07:06:15.473Z,8.70
2023-04-24T07:08:43.106Z,13.23
2023-04-24T07:11:10.065Z,12.70
2023-04-24T07:13:37.110Z,13.10
2023-04-24T07:16:04.266Z,12.90
2023-04-24T07:18:31.614Z,12.90
2023-04-24T07:20:58.804Z,17.23
2023-04-24T07:23:25.971Z,13.35
2023-04-24T07:25:52.934Z,12.43
2023-04-24T07:28:19.983Z,11.68
2023-04-24T07:30:46.884Z,11.23
2023-04-24T07:33:14.465Z,15.88
2023-04-24T07:35:41.490Z,13.68
2023-04-24T07:38:08.457Z,13.30
2023-04-24T07:40:35.448Z,11.40
2023-04-24T07:43:02.464Z,12.50
2023-04-24T07:45:29.551Z,10.00
2023-04-24T07:47:57.432Z,17.70
2023-04-24T07:50:24.512Z,15.13
2023-04-24T07:52:51.630Z,9.32
2023-04-24T07:55:19.889Z,10.68
2023-04-24T07:57:48.904Z,9.77
2023-04-24T08:00:16.269Z,12.27
2023-04-24T08:02:43.467Z,9.52
2023-04-24T08:05:11.179Z,10.23
2023-04-24T08:07:38.981Z,11.13
2023-04-24T08:10:06.655Z,11.23
2023-04-24T08:12:33.650Z,13.10
2023-04-24T08:15:00.852Z,10.77
2023-04-24T08:17:27.915Z,19.60
2023-04-24T08:20:02.186Z,10.55
2023-04-24T08:22:29.675Z,11.95
2023-04-24T08:24:58.033Z,9.55
2023-04-24T08:27:25.276Z,8.38
2023-04-24T08:29:53.938Z,10.13
2023-04-24T08:32:21.064Z,11.77
2023-04-24T08:34:49.659Z,6.40
2023-04-24T08:37:17.139Z,10.63
2023-04-24T08:39:44.269Z,9.10
2023-04-24T08:42:14.135Z,9.45
2023-04-24T08:44:41.388Z,9.35
2023-04-24T08:47:09.332Z,12.27
2023-04-24T08:49:38.702Z,10.65
2023-04-24T08:52:08.759Z,10.40
2023-04-24T08:54:37.023Z,7.65
2023-04-24T08:57:05.014Z,9.07
2023-04-24T08:59:32.855Z,11.32
2023-04-24T09:02:02.369Z,7.03
2023-04-24T09:04:31.270Z,5.43
2023-04-24T09:06:59.555Z,6.53
2023-04-24T09:09:27.207Z,6.13
2023-04-24T09:11:58.265Z,8.65
2023-04-24T09:14:25.551Z,7.95
2023-04-24T09:16:53.865Z,6.57
2023-04-24T09:19:22.785Z,9.43
2023-04-24T09:21:49.821Z,5.10
2023-04-24T09:24:21.262Z,10.82
2023-04-24T09:26:48.358Z,6.05
2023-04-24T09:29:17.906Z,5.95
2023-04-24T09:31:46.711Z,4.68
2023-04-24T09:34:14.640Z,4.80
2023-04-24T09:36:43.843Z,7.35
2023-04-24T09:39:13.404Z,7.72
2023-04-24T09:41:50.234Z,6.15
2023-04-24T09:44:19.035Z,3.50
2023-04-24T09:46:50.710Z,7.03
2023-04-24T09:49:23.247Z,6.13
2023-04-24T09:51:50.367Z,4.90
2023-04-24T09:54:22.164Z,12.13
2023-04-24T09:56:51.584Z,6.93
2023-04-24T09:59:20.758Z,7.82
2023-04-24T10:01:49.658Z,6.63
2023-04-24T10:04:22.378Z,9.45
2023-04-24T10:06:50.661Z,8.20
2023-04-24T10:09:23.005Z,7.53
2023-04-24T10:11:52.188Z,8.15
2023-04-24T10:14:24.389Z,7.30
2023-04-24T10:16:54.462Z,4.32
2023-04-24T10:19:21.506Z,7.35
2023-04-24T10:21:48.740Z,4.70
2023-04-24T10:24:18.883Z,4.15
2023-04-24T10:26:47.120Z,7.35
2023-04-24T10:29:18.828Z,5.97
2023-04-24T10:31:48.747Z,7.05
2023-04-24T10:34:18.647Z,5.88
2023-04-24T10:37:04.487Z,5.40
2023-04-24T10:39:34.480Z,6.90
2023-04-24T10:42:01.791Z,6.47
2023-04-24T10:44:37.990Z,7.50
2023-04-24T10:47:05.320Z,7.05
2023-04-24T10:49:33.124Z,12.57
2023-04-24T10:52:06.747Z,7.40
2023-04-24T10:54:41.526Z,7.82
2023-04-24T10:57:20.763Z,10.02
2023-04-24T10:59:49.456Z,6.18
2023-04-24T11:02:17.483Z,5.88
2023-04-24T11:04:46.129Z,9.60
2023-04-24T11:07:13.754Z,7.75
2023-04-24T11:09:44.247Z,9.57
2023-04-24T11:12:13.845Z,9.07
2023-04-24T11:14:59.574Z,10.93
2023-04-24T11:17:39.220Z,8.43
2023-04-24T11:20:27.805Z,8.60
2023-04-24T11:22:56.511Z,6.85
2023-04-24T11:25:23.961Z,5.60
2023-04-24T11:27:51.400Z,5.50
2023-04-24T11:30:20.462Z,6.25
2023-04-24T11:32:52.598Z,5.55
2023-04-24T11:35:22.378Z,11.38
2023-04-24T11:40:23.893Z,9.20
2023-04-24T11:42:52.187Z,8.57
2023-04-24T11:45:27.219Z,11.05
2023-04-24T11:47:54.857Z,4.13
2023-04-24T11:50:24.734Z,5.47
2023-04-24T11:52:52.252Z,8.32
2023-04-24T11:55:29.064Z,9.32
2023-04-24T11:57:58.663Z,9.43
2023-04-24T12:00:28.522Z,12.13
2023-04-24T12:03:10.257Z,7.60
2023-04-24T12:05:37.880Z,8.25
2023-04-24T12:08:05.978Z,6.63
2023-04-24T12:10:34.135Z,7.80
2023-04-24T12:13:01.582Z,9.95
2023-04-24T12:15:28.957Z,5.80
2023-04-24T12:17:57.432Z,5.28
2023-04-24T12:20:34.196Z,5.97
2023-04-24T12:23:02.305Z,10.32
2023-04-24T12:25:32.098Z,10.18
2023-04-24T12:28:05.099Z,11.30
2023-04-24T12:30:34.707Z,8.23
2023-04-24T12:33:01.916Z,6.43
2023-04-24T12:35:30.308Z,7.43
2023-04-24T12:38:05.982Z,5.10
2023-04-24T12:40:32.983Z,4.35
2023-04-24T12:43:00.001Z,8.10
2023-04-24T12:45:28.884Z,4.78
2023-04-24T12:47:56.067Z,5.90
2023-04-24T12:50:23.117Z,6.80
2023-04-24T12:52:50.052Z,5.85
2023-04-24T12:55:17.024Z,7.80
2023-04-24T12:57:44.014Z,5.78
2023-04-24T13:00:11.415Z,5.60
2023-04-24T13:02:38.625Z,5.72
2023-04-24T13:05:07.171Z,6.18
2023-04-24T13:07:34.485Z,6.22
2023-04-24T13:10:01.724Z,5.63
2023-04-24T13:12:28.750Z,4.72
2023-04-24T13:14:55.684Z,4.90
2023-04-24T13:17:23.153Z,7.35
2023-04-24T13:19:51.965Z,4.15
2023-04-24T13:22:19.876Z,6.03
2023-04-24T13:24:47.089Z,5.07
2023-04-24T13:27:14.127Z,8.82
2023-04-24T13:29:41.516Z,5.20
2023-04-24T13:32:09.561Z,4.90
2023-04-24T13:34:37.773Z,7.97
2023-04-24T13:37:05.920Z,5.35
2023-04-24T13:39:32.930Z,4.47
2023-04-24T13:42:00.462Z,3.70
2023-04-24T13:44:28.509Z,7.63
2023-04-24T13:46:57.967Z,3.50
2023-04-24T13:49:26.348Z,8.38
2023-04-24T13:51:54.379Z,4.28
2023-04-24T13:54:21.504Z,5.07
2023-04-24T13:56:48.502Z,3.70
2023-04-24T13:59:15.731Z,4.07
2023-04-24T14:01:42.687Z,3.55
2023-04-24T14:04:09.971Z,7.15
2023-04-24T14:06:37.027Z,3.17
2023-04-24T14:09:04.134Z,8.48
2023-04-24T14:11:31.278Z,5.47
2023-04-24T14:13:58.296Z,3.65
2023-04-24T14:16:25.881Z,7.00
2023-04-24T14:18:52.866Z,2.90
2023-04-24T14:21:19.795Z,5.13
2023-04-24T14:23:47.022Z,5.97
2023-04-24T14:26:14.363Z,4.93
2023-04-24T14:28:41.581Z,5.10
2023-04-24T14:31:09.231Z,2.75
2023-04-24T14:33:36.324Z,2.95
2023-04-24T14:36:04.011Z,4.68
2023-04-24T14:38:32.479Z,4.47
2023-04-24T14:41:07.106Z,3.25
2023-04-24T14:43:36.522Z,2.58
2023-04-24T14:46:05.755Z,2.53
2023-04-24T14:48:32.896Z,2.92
2023-04-24T14:51:00.107Z,3.85
2023-04-24T14:53:27.173Z,3.72
2023-04-24T14:55:54.846Z,6.75
2023-04-24T14:58:21.881Z,3.90
2023-04-24T15:00:51.229Z,5.43
2023-04-24T15:03:19.294Z,3.40
2023-04-24T15:05:46.816Z,3.45
2023-04-24T15:08:13.842Z,4.43
2023-04-24T15:10:41.032Z,5.20
2023-04-24T15:13:08.016Z,4.25
2023-04-24T15:15:35.051Z,4.20
2023-04-24T15:18:02.436Z,3.17
2023-04-24T15:20:29.479Z,3.28
2023-04-24T15:22:56.610Z,3.38
2023-04-24T15:25:23.719Z,4.60
2023-04-24T15:27:50.763Z,3.50
2023-04-24T15:30:17.874Z,3.08
2023-04-24T15:32:44.794Z,2.85
2023-04-24T15:35:11.772Z,3.25
2023-04-24T15:37:39.721Z,6.75
2023-04-24T15:40:08.642Z,2.25
2023-04-24T15:42:36.361Z,3.83
2023-04-24T15:45:04.495Z,6.22
2023-04-24T15:47:32.827Z,3.15
2023-04-24T15:49:59.817Z,4.45
2023-04-24T15:52:26.732Z,4.47
2023-04-24T15:54:54.042Z,7.95
2023-04-24T15:57:21.686Z,3.17
2023-04-24T15:59:48.991Z,3.67
2023-04-24T16:02:20.743Z,4.97
2023-04-24T16:04:49.793Z,2.33
2023-04-24T16:07:20.625Z,4.00
2023-04-24T16:09:47.833Z,3.42
2023-04-24T16:12:14.991Z,4.32
2023-04-24T16:14:42.003Z,6.57
2023-04-24T16:17:09.365Z,3.58
2023-04-24T16:19:36.503Z,4.90
2023-04-24T16:22:04.299Z,2.55
2023-04-24T16:24:31.442Z,2.17
2023-04-24T16:27:00.880Z,3.05
2023-04-24T16:29:28.867Z,3.95
2023-04-24T16:31:55.958Z,4.75
2023-04-24T16:34:22.928Z,2.45
2023-04-24T16:36:50.411Z,4.03
2023-04-24T16:39:17.373Z,3.08
2023-04-24T16:41:45.705Z,6.57
2023-04-24T16:44:13.775Z,2.70
2023-04-24T16:46:40.778Z,2.45
2023-04-24T16:49:07.939Z,1.90
2023-04-24T16:51:34.978Z,1.75
2023-04-24T16:54:01.924Z,3.17
2023-04-24T16:56:28.898Z,8.27
2023-04-24T16:58:56.608Z,2.50
2023-04-24T17:01:24.061Z,2.75
2023-04-24T17:03:51.604Z,3.47
2023-04-24T17:06:18.871Z,1.38
2023-04-24T17:08:46.384Z,2.05
2023-04-24T17:11:13.495Z,4.93
2023-04-24T17:13:40.629Z,5.45
2023-04-24T17:16:07.740Z,1.80
2023-04-24T17:18:34.794Z,5.25
2023-04-24T17:21:01.743Z,2.65
2023-04-24T17:23:28.897Z,2.97
2023-04-24T17:25:55.870Z,2.60
2023-04-24T17:28:28.948Z,2.78
2023-04-24T17:30:58.340Z,3.67
2023-04-24T17:33:30.414Z,2.13
2023-04-24T17:36:04.103Z,2.15
2023-04-24T17:38:31.255Z,2.72
2023-04-24T17:40:58.480Z,3.55
2023-04-24T17:43:26.294Z,2.05
2023-04-24T17:45:59.322Z,4.93
2023-04-24T17:48:29.619Z,4.40
2023-04-24T17:50:56.633Z,4.35
2023-04-24T17:53:23.785Z,5.95
2023-04-24T17:55:50.844Z,5.75
2023-04-24T17:58:19.119Z,4.82
2023-04-24T18:00:46.433Z,4.80
2023-04-24T18:03:13.635Z,3.72
2023-04-24T18:05:40.808Z,4.50
2023-04-24T18:08:07.872Z,3.10
2023-04-24T18:10:37.942Z,3.33
2023-04-24T18:13:05.693Z,4.78
2023-04-24T18:15:32.925Z,5.10
2023-04-24T18:18:00.449Z,4.60
2023-04-24T18:20:27.671Z,7.07
2023-04-24T18:22:54.787Z,4.93
2023-04-24T18:25:26.729Z,5.72
2023-04-24T18:27:55.872Z,4.45
2023-04-24T18:30:24.164Z,7.43
2023-04-24T18:32:53.435Z,3.47
2023-04-24T18:35:21.551Z,4.30
2023-04-24T18:37:49.142Z,5.53
2023-04-24T18:40:17.106Z,3.75
2023-04-24T18:42:44.960Z,6.20
2023-04-24T18:45:15.075Z,3.88
2023-04-24T18:47:43.071Z,4.18
2023-04-24T18:50:11.129Z,5.50
2023-04-24T18:52:38.159Z,5.10
2023-04-24T18:55:06.678Z,6.18
2023-04-24T18:57:33.954Z,7.60
2023-04-24T19:00:00.950Z,7.07
2023-04-24T19:02:28.135Z,9.10
2023-04-24T19:04:55.389Z,5.75
2023-04-24T19:07:22.412Z,5.53
2023-04-24T19:09:49.384Z,4.45
2023-04-24T19:12:16.516Z,7.25
2023-04-24T19:14:43.610Z,7.18
2023-04-24T19:17:11.133Z,3.33
2023-04-24T19:19:38.410Z,4.47
2023-04-24T19:22:07.641Z,3.58
2023-04-24T19:24:34.755Z,4.32
2023-04-24T19:27:02.258Z,2.70
2023-04-24T19:29:29.247Z,3.60
2023-04-24T19:31:57.928Z,3.28
2023-04-24T19:34:26.166Z,3.42
2023-04-24T19:36:53.244Z,4.32
2023-04-24T19:39:20.308Z,3.47
2023-04-24T19:41:47.513Z,7.18
2023-04-24T19:44:15.695Z,7.38
2023-04-24T19:46:43.301Z,12.93
2023-04-24T19:49:10.407Z,3.58
2023-04-24T19:51:37.849Z,7.85
2023-04-24T19:54:06.301Z,6.95
2023-04-24T19:56:33.698Z,7.93
2023-04-24T19:59:01.103Z,7.97
2023-04-24T20:01:28.674Z,12.13
2023-04-24T20:03:56.220Z,8.18
2023-04-24T20:06:23.398Z,6.50
2023-04-24T20:08:50.954Z,7.47
2023-04-24T20:11:18.145Z,9.05
2023-04-24T20:13:45.608Z,7.95
2023-04-24T20:16:12.878Z,6.80
2023-04-24T20:18:39.850Z,7.63
2023-04-24T20:21:06.898Z,6.15
2023-04-24T20:23:34.008Z,8.45
2023-04-24T20:26:01.358Z,6.13
2023-04-24T20:28:31.882Z,11.40
2023-04-24T20:30:59.857Z,4.28
2023-04-24T20:33:28.111Z,8.05
2023-04-24T20:35:55.662Z,10.02
2023-04-24T20:38:24.384Z,4.80
2023-04-24T20:43:23.022Z,7.68
2023-04-24T20:45:50.409Z,7.15
2023-04-24T20:48:17.551Z,7.07
2023-04-24T20:50:44.655Z,8.73
2023-04-24T20:53:11.578Z,7.70
2023-04-24T20:55:38.596Z,5.45
2023-04-24T20:58:05.604Z,6.03
2023-04-24T21:00:32.669Z,6.97
2023-04-24T21:02:59.954Z,10.23
2023-04-24T21:05:27.134Z,7.13
2023-04-24T21:07:56.088Z,7.82
2023-04-24T21:10:24.288Z,10.27
2023-04-24T21:12:51.361Z,6.40
2023-04-24T21:15:18.713Z,8.52
2023-04-24T21:17:46.000Z,10.38
2023-04-24T21:20:13.071Z,6.28
2023-04-24T21:22:40.223Z,10.13
2023-04-24T21:25:08.581Z,5.95
2023-04-24T21:27:36.300Z,8.80
2023-04-24T21:30:05.061Z,8.43
2023-04-24T21:32:32.131Z,9.40
2023-04-24T21:34:59.662Z,7.47
2023-04-24T21:37:27.295Z,7.22
2023-04-24T21:39:54.919Z,8.00
2023-04-24T21:42:22.005Z,6.45
2023-04-24T21:44:49.177Z,7.38
2023-04-24T21:47:16.135Z,8.93
2023-04-24T21:49:43.083Z,5.10
2023-04-24T21:52:10.141Z,5.95
2023-04-24T21:54:37.099Z,4.72
2023-04-24T21:57:04.193Z,7.00
2023-04-24T21:59:31.197Z,9.52
2023-04-24T22:01:58.543Z,7.70
2023-04-24T22:04:26.797Z,8.18
2023-04-24T22:06:56.725Z,8.38
2023-04-24T22:09:23.711Z,6.80
2023-04-24T22:11:51.038Z,6.72
2023-04-24T22:14:17.993Z,12.35
2023-04-24T22:16:46.079Z,8.02
2023-04-24T22:19:13.320Z,10.80
2023-04-24T22:21:41.114Z,7.55
2023-04-24T22:24:08.897Z,6.70
2023-04-24T22:26:35.890Z,6.70
2023-04-24T22:29:03.034Z,5.40
2023-04-24T22:31:30.121Z,11.25
2023-04-24T22:33:57.142Z,8.45
2023-04-24T22:36:24.131Z,7.43
2023-04-24T22:38:51.641Z,8.50
2023-04-24T22:41:18.838Z,10.15
2023-04-24T22:43:46.386Z,8.18
2023-04-24T22:46:13.620Z,8.35
2023-04-24T22:48:40.700Z,7.90
2023-04-24T22:51:07.678Z,9.90
2023-04-24T22:53:36.203Z,8.45
2023-04-24T22:56:03.416Z,11.70
2023-04-24T22:58:30.443Z,6.72
2023-04-24T23:00:57.426Z,9.75
2023-04-24T23:03:24.639Z,13.32
2023-04-24T23:05:51.691Z,15.85
2023-04-24T23:08:18.703Z,8.82
2023-04-24T23:10:45.756Z,8.52
2023-04-24T23:13:12.919Z,4.47
2023-04-24T23:15:39.947Z,8.90
2023-04-24T23:18:06.941Z,8.38
2023-04-24T23:20:33.921Z,8.02
2023-04-24T23:23:01.020Z,8.63
2023-04-24T23:25:27.907Z,8.23
2023-04-24T23:27:54.944Z,9.57
2023-04-24T23:30:21.987Z,20.88
2023-04-24T23:32:48.960Z,9.13
2023-04-24T23:35:15.912Z,9.85
2023-04-24T23:37:43.033Z,13.10
2023-04-24T23:40:10.596Z,18.00
2023-04-24T23:42:37.766Z,14.73
2023-04-24T23:45:05.728Z,10.98
2023-04-24T23:47:32.919Z,11.05
2023-04-24T23:49:59.924Z,9.82
2023-04-24T23:52:26.848Z,15.48
2023-04-24T23:54:53.791Z,9.32
2023-04-24T23:57:21.618Z,9.25
2023-04-24T23:59:48.626Z,10.05
